Time;durP1;ratioP1;P1;durP2;ratioP2;P2;SDS_P1;SDS_P2;PMS_P1;PMS_P2;Temp;Humidity;BMP_temperature;BMP_pressure;BME280_temperature;BME280_humidity;BME280_pressure;Samples;Min_cycle;Max_cycle;Signal;HPM_P1;HPM_P2
2023/09/24 00:00:46;;;;;;;3.42;1.10;;;19.70;99.90;;;;;;5011899;28;20206;-82
2023/09/24 00:03:16;;;;;;;1.58;0.98;;;19.80;99.90;;;;;;5020193;28;20656;-80
2023/09/24 00:05:47;;;;;;;2.17;1.30;;;19.80;99.90;;;;;;5026059;28;20232;-84
2023/09/24 00:08:19;;;;;;;3.30;1.17;;;19.90;99.90;;;;;;5033599;28;20217;-82
2023/09/24 00:10:54;;;;;;;1.45;0.90;;;20.00;99.90;;;;;;5043783;28;20208;-82
2023/09/24 00:13:26;;;;;;;1.33;0.90;;;20.10;99.90;;;;;;5034835;28;20228;-82
2023/09/24 00:15:56;;;;;;;2.88;0.98;;;20.20;99.90;;;;;;5035275;28;20195;-82
2023/09/24 00:18:27;;;;;;;2.40;1.10;;;20.20;99.90;;;;;;5035062;28;20287;-82
2023/09/24 00:20:58;;;;;;;2.67;0.80;;;20.30;99.90;;;;;;5032714;28;20200;-84
2023/09/24 00:23:30;;;;;;;2.75;0.70;;;20.20;99.90;;;;;;5034303;28;20229;-83
2023/09/24 00:26:03;;;;;;;1.50;0.88;;;20.00;99.90;;;;;;5043210;28;20276;-83
2023/09/24 00:28:34;;;;;;;1.40;0.80;;;20.00;99.90;;;;;;5035381;28;20221;-84
2023/09/24 00:31:04;;;;;;;1.80;0.90;;;19.90;99.90;;;;;;5030097;28;20201;-83
2023/09/24 00:33:35;;;;;;;1.00;0.68;;;19.90;99.90;;;;;;5035563;28;20292;-81
2023/09/24 00:36:06;;;;;;;1.80;1.10;;;19.90;99.90;;;;;;5029688;28;20196;-80
2023/09/24 00:38:39;;;;;;;2.45;1.10;;;20.00;99.90;;;;;;5034142;28;20233;-82
2023/09/24 00:41:13;;;;;;;2.63;0.90;;;20.10;99.90;;;;;;5033203;28;20217;-81
2023/09/24 00:43:45;;;;;;;1.35;0.75;;;20.10;99.90;;;;;;5034806;28;20196;-83
2023/09/24 00:46:16;;;;;;;2.30;0.90;;;20.10;99.90;;;;;;5021040;28;20190;-81
2023/09/24 00:48:47;;;;;;;0.85;0.55;;;20.10;99.90;;;;;;5029496;28;20256;-81
2023/09/24 00:51:19;;;;;;;2.15;0.80;;;20.10;99.90;;;;;;5034528;28;20637;-82
2023/09/24 00:53:50;;;;;;;0.70;0.60;;;20.10;99.90;;;;;;5023892;28;20194;-81
2023/09/24 00:56:24;;;;;;;1.20;0.60;;;20.10;99.90;;;;;;5034019;28;20202;-82
2023/09/24 00:58:55;;;;;;;2.83;0.70;;;20.10;99.90;;;;;;5032005;28;20212;-89
2023/09/24 01:01:29;;;;;;;3.22;0.68;;;20.20;99.90;;;;;;5046116;28;20198;-83
2023/09/24 01:04:00;;;;;;;1.75;0.50;;;20.30;99.90;;;;;;5042136;28;20212;-84
2023/09/24 01:06:31;;;;;;;5.10;0.77;;;20.20;99.90;;;;;;5024918;28;20229;-83
2023/09/24 01:09:05;;;;;;;4.13;0.90;;;20.20;99.90;;;;;;5017033;28;20210;-83
2023/09/24 01:11:45;;;;;;;3.33;0.55;;;20.00;99.90;;;;;;5016347;28;20250;-82
2023/09/24 01:14:17;;;;;;;2.88;0.52;;;20.10;99.90;;;;;;5018362;28;20197;-83
2023/09/24 01:16:48;;;;;;;1.25;0.52;;;20.20;99.90;;;;;;5031626;28;20201;-82
2023/09/24 01:19:21;;;;;;;2.25;0.50;;;20.40;99.90;;;;;;5036001;28;20201;-82
2023/09/24 01:21:54;;;;;;;1.73;0.70;;;20.50;99.90;;;;;;5028959;28;20221;-81
2023/09/24 01:24:27;;;;;;;1.00;0.50;;;20.60;99.90;;;;;;5032870;28;20197;-84
2023/09/24 01:26:58;;;;;;;0.57;0.40;;;20.80;99.90;;;;;;5015380;28;20198;-83
2023/09/24 01:29:29;;;;;;;2.38;0.50;;;21.00;99.90;;;;;;5021309;28;20206;-83
2023/09/24 01:31:59;;;;;;;2.03;0.65;;;21.30;99.90;;;;;;5033312;28;20204;-82
2023/09/24 01:34:30;;;;;;;2.28;0.50;;;21.40;99.90;;;;;;5030365;28;20688;-82
2023/09/24 01:37:06;;;;;;;0.75;0.50;;;21.50;99.90;;;;;;5031959;28;20197;-82
2023/09/24 01:39:43;;;;;;;2.13;0.82;;;21.50;99.90;;;;;;5029033;28;20197;-80
2023/09/24 01:42:14;;;;;;;2.30;0.85;;;21.50;99.90;;;;;;5026265;28;20753;-82
2023/09/24 01:44:46;;;;;;;2.17;0.70;;;21.50;99.90;;;;;;5023766;28;20272;-82
2023/09/24 01:47:16;;;;;;;2.20;0.90;;;21.60;99.90;;;;;;5015359;28;20280;-82
2023/09/24 01:49:49;;;;;;;4.57;0.90;;;21.60;99.90;;;;;;5027646;28;20186;-82
2023/09/24 01:52:20;;;;;;;2.20;0.40;;;21.60;99.90;;;;;;5013109;28;20205;-83
2023/09/24 01:54:52;;;;;;;1.80;0.60;;;21.60;98.80;;;;;;5016337;28;20201;-83
2023/09/24 01:57:24;;;;;;;0.52;0.30;;;21.50;98.10;;;;;;5033036;28;20209;-83
2023/09/24 01:59:55;;;;;;;0.95;0.40;;;21.30;98.00;;;;;;5032699;28;20686;-82
2023/09/24 02:02:25;;;;;;;2.13;0.60;;;21.40;97.30;;;;;;5029691;28;20189;-84
2023/09/24 02:04:57;;;;;;;1.10;0.50;;;21.40;97.70;;;;;;5026359;28;20202;-82
2023/09/24 02:07:31;;;;;;;1.38;0.47;;;21.60;97.70;;;;;;5033986;28;20710;-80
2023/09/24 02:10:05;;;;;;;1.27;0.40;;;21.40;97.50;;;;;;5030154;28;20292;-84
2023/09/24 02:12:38;;;;;;;2.10;0.63;;;21.50;97.60;;;;;;5026130;28;20309;-83
2023/09/24 02:15:12;;;;;;;0.88;0.50;;;21.50;97.80;;;;;;5022914;28;20213;-82
2023/09/24 02:17:43;;;;;;;1.17;0.40;;;21.60;96.40;;;;;;5028065;28;20257;-82
2023/09/24 02:20:22;;;;;;;1.70;0.40;;;21.90;96.20;;;;;;5018972;28;20200;-82
2023/09/24 02:22:56;;;;;;;3.20;0.35;;;22.10;96.40;;;;;;5031567;28;20220;-82
2023/09/24 02:25:30;;;;;;;0.85;0.50;;;22.30;95.90;;;;;;5027121;28;20271;-83
2023/09/24 02:28:01;;;;;;;1.02;0.50;;;22.60;94.40;;;;;;5032213;28;20225;-83
2023/09/24 02:30:34;;;;;;;0.90;0.50;;;22.70;94.50;;;;;;5031004;28;20274;-84
2023/09/24 02:33:06;;;;;;;3.72;0.70;;;22.80;94.00;;;;;;5012397;28;20240;-85
2023/09/24 02:35:37;;;;;;;2.33;0.40;;;22.80;94.30;;;;;;5017181;28;20205;-83
2023/09/24 02:38:11;;;;;;;0.95;0.50;;;22.60;92.90;;;;;;5028217;28;20228;-84
2023/09/24 02:40:44;;;;;;;2.17;0.50;;;22.50;93.10;;;;;;5028714;28;20272;-84
2023/09/24 02:43:15;;;;;;;4.95;0.95;;;22.60;94.40;;;;;;5024764;28;20652;-84
2023/09/24 02:45:46;;;;;;;1.10;0.60;;;22.70;94.40;;;;;;5031377;28;20208;-84
2023/09/24 02:48:18;;;;;;;2.17;0.60;;;23.00;94.50;;;;;;5032694;28;20707;-83
2023/09/24 02:50:49;;;;;;;4.10;0.80;;;23.00;94.10;;;;;;5032945;28;20284;-86
2023/09/24 02:53:20;;;;;;;1.42;0.47;;;23.00;94.70;;;;;;5027291;28;20197;-85
2023/09/24 02:55:54;;;;;;;0.47;0.40;;;23.10;92.60;;;;;;5026336;28;20228;-85
2023/09/24 02:58:25;;;;;;;1.77;0.50;;;22.80;91.80;;;;;;5032931;28;20204;-86
2023/09/24 03:00:56;;;;;;;1.13;0.40;;;22.30;92.60;;;;;;5031474;28;20200;-85
2023/09/24 03:03:27;;;;;;;1.02;0.40;;;22.40;93.10;;;;;;5032852;28;20205;-85
2023/09/24 03:05:58;;;;;;;2.00;0.40;;;22.50;92.20;;;;;;5044814;28;20561;-84
2023/09/24 03:08:29;;;;;;;1.17;0.40;;;22.60;91.20;;;;;;5051922;28;20227;-83
2023/09/24 03:11:02;;;;;;;0.85;0.40;;;22.40;92.30;;;;;;5046693;28;20209;-85
2023/09/24 03:13:34;;;;;;;1.63;0.50;;;22.50;91.90;;;;;;5031642;28;20216;-83
2023/09/24 03:16:04;;;;;;;1.13;0.30;;;22.60;91.60;;;;;;5031861;28;20209;-84
2023/09/24 03:18:35;;;;;;;2.00;0.40;;;22.80;91.60;;;;;;5031937;28;20203;-85
2023/09/24 03:21:06;;;;;;;0.52;0.40;;;22.70;91.00;;;;;;5032463;28;20268;-87
2023/09/24 03:23:37;;;;;;;0.90;0.32;;;22.80;89.90;;;;;;5032099;28;20204;-86
2023/09/24 03:26:14;;;;;;;1.60;0.50;;;22.70;89.90;;;;;;5036922;28;20209;-84
2023/09/24 03:28:45;;;;;;;1.05;0.50;;;22.70;89.30;;;;;;5035937;28;20228;-83
2023/09/24 03:31:16;;;;;;;0.95;0.25;;;22.90;90.20;;;;;;5031873;28;20236;-85
2023/09/24 03:33:47;;;;;;;1.67;0.30;;;23.00;90.10;;;;;;5032166;28;20232;-85
2023/09/24 03:36:18;;;;;;;0.90;0.32;;;23.10;87.80;;;;;;5031745;28;20228;-86
2023/09/24 03:38:49;;;;;;;2.67;0.38;;;22.90;88.00;;;;;;5032267;28;20199;-85
2023/09/24 03:41:21;;;;;;;1.55;0.30;;;23.00;88.10;;;;;;5030644;28;20216;-85
2023/09/24 03:43:52;;;;;;;1.02;0.30;;;23.20;86.90;;;;;;5031402;28;20198;-85
2023/09/24 03:46:23;;;;;;;1.65;0.43;;;23.20;85.80;;;;;;5030434;28;20359;-84
2023/09/24 03:48:54;;;;;;;1.30;0.57;;;22.90;86.70;;;;;;5031912;28;20271;-85
2023/09/24 03:51:25;;;;;;;14.35;1.50;;;22.90;88.00;;;;;;5031414;28;20193;-85
2023/09/24 03:53:56;;;;;;;4.22;0.68;;;23.00;87.40;;;;;;5030805;28;20243;-85
2023/09/24 03:56:28;;;;;;;0.95;0.20;;;22.90;87.10;;;;;;5022902;28;20280;-85
2023/09/24 03:58:59;;;;;;;0.55;0.40;;;23.10;86.80;;;;;;5011433;28;20677;-84
2023/09/24 04:01:31;;;;;;;0.82;0.28;;;23.00;84.90;;;;;;5010792;28;20202;-85
2023/09/24 04:04:02;;;;;;;1.20;0.50;;;22.90;85.30;;;;;;5023780;28;20202;-83
2023/09/24 04:06:33;;;;;;;0.60;0.25;;;22.80;85.60;;;;;;5026825;28;20194;-83
2023/09/24 04:09:04;;;;;;;0.75;0.40;;;22.60;85.70;;;;;;5030518;28;20244;-85
2023/09/24 04:11:37;;;;;;;1.38;0.30;;;22.70;87.10;;;;;;5030779;28;20231;-85
2023/09/24 04:14:08;;;;;;;0.77;0.30;;;22.60;87.00;;;;;;5031146;28;20268;-84
2023/09/24 04:16:39;;;;;;;0.40;0.30;;;22.60;87.70;;;;;;5030620;28;20204;-85
2023/09/24 04:19:10;;;;;;;0.55;0.30;;;22.60;87.20;;;;;;5029537;28;20205;-85
2023/09/24 04:21:40;;;;;;;2.97;0.47;;;22.50;85.00;;;;;;5030708;28;20189;-84
2023/09/24 04:24:12;;;;;;;2.05;0.50;;;22.30;86.60;;;;;;5042097;28;20201;-85
2023/09/24 04:26:45;;;;;;;0.43;0.40;;;22.00;87.80;;;;;;5050506;28;20208;-85
2023/09/24 04:29:16;;;;;;;1.70;0.40;;;22.10;87.60;;;;;;5050725;28;20699;-86
2023/09/24 04:31:47;;;;;;;1.80;0.40;;;22.20;88.30;;;;;;5052034;28;20215;-85
2023/09/24 04:34:19;;;;;;;3.70;0.40;;;22.30;88.80;;;;;;5055400;28;20200;-86
2023/09/24 04:36:50;;;;;;;0.40;0.20;;;22.10;88.40;;;;;;5036237;28;20218;-86
2023/09/24 04:39:22;;;;;;;1.00;0.40;;;22.10;87.70;;;;;;5033341;28;20200;-86
2023/09/24 04:41:55;;;;;;;1.35;0.35;;;22.00;87.80;;;;;;5051296;28;20208;-85
2023/09/24 04:44:26;;;;;;;1.25;0.40;;;21.70;90.10;;;;;;5040756;28;20193;-86
2023/09/24 04:46:57;;;;;;;3.03;0.88;;;21.80;90.30;;;;;;5031300;28;20724;-84
2023/09/24 04:49:27;;;;;;;1.00;0.47;;;21.70;91.30;;;;;;5027398;28;20213;-86
2023/09/24 04:51:58;;;;;;;0.60;0.30;;;21.80;91.50;;;;;;5032195;28;20197;-85
2023/09/24 04:54:29;;;;;;;2.17;0.40;;;21.80;91.10;;;;;;5030141;28;20202;-84
2023/09/24 04:57:04;;;;;;;2.75;0.63;;;21.80;91.20;;;;;;5037161;28;20202;-85
2023/09/24 04:59:35;;;;;;;2.58;0.47;;;21.80;91.70;;;;;;5029332;28;20193;-83
2023/09/24 05:02:05;;;;;;;1.70;0.50;;;21.90;91.20;;;;;;5015982;28;20658;-89
2023/09/24 05:04:38;;;;;;;1.90;0.35;;;22.00;91.60;;;;;;5033817;28;20204;-85
2023/09/24 05:07:07;;;;;;;1.83;0.40;;;22.00;91.60;;;;;;5035612;28;20209;-83
2023/09/24 05:09:38;;;;;;;1.60;0.50;;;21.90;90.80;;;;;;5033089;28;20223;-84
2023/09/24 05:12:12;;;;;;;0.90;0.30;;;21.90;91.20;;;;;;5030751;28;20225;-85
2023/09/24 05:14:45;;;;;;;0.70;0.30;;;21.90;91.60;;;;;;5035001;28;20208;-84
2023/09/24 05:17:16;;;;;;;0.65;0.50;;;21.90;91.30;;;;;;5032391;28;20647;-84
2023/09/24 05:19:47;;;;;;;0.30;0.30;;;21.90;91.20;;;;;;5033080;28;20212;-84
2023/09/24 05:22:18;;;;;;;0.60;0.28;;;21.90;91.20;;;;;;5042041;28;20264;-83
2023/09/24 05:24:49;;;;;;;2.30;0.40;;;21.70;91.40;;;;;;5058730;28;20201;-85
2023/09/24 05:27:21;;;;;;;0.50;0.30;;;21.80;92.10;;;;;;5050072;28;20193;-84
2023/09/24 05:29:53;;;;;;;1.08;0.40;;;21.90;91.90;;;;;;5043912;28;20225;-85
2023/09/24 05:32:23;;;;;;;0.70;0.30;;;21.90;91.70;;;;;;5034179;28;20208;-84
2023/09/24 05:34:55;;;;;;;0.75;0.38;;;21.90;91.60;;;;;;5032752;28;20209;-85
2023/09/24 05:37:26;;;;;;;1.63;0.40;;;22.00;91.90;;;;;;5022842;28;20220;-84
2023/09/24 05:39:57;;;;;;;1.50;0.35;;;22.00;92.80;;;;;;5033683;28;20205;-86
2023/09/24 05:42:29;;;;;;;0.90;0.30;;;22.10;92.10;;;;;;5032780;28;20260;-86
2023/09/24 05:45:00;;;;;;;2.13;0.20;;;21.90;92.30;;;;;;5032585;28;20578;-86
2023/09/24 05:47:31;;;;;;;2.00;0.40;;;21.80;92.50;;;;;;5032186;28;20667;-85
2023/09/24 05:50:02;;;;;;;1.10;0.30;;;21.80;92.90;;;;;;5032892;28;20224;-85
2023/09/24 05:52:33;;;;;;;2.83;0.40;;;21.80;92.60;;;;;;5033249;28;20205;-86
2023/09/24 05:55:04;;;;;;;1.98;0.38;;;21.80;92.70;;;;;;5033448;28;20201;-85
2023/09/24 05:57:37;;;;;;;1.85;0.50;;;21.80;93.10;;;;;;5039924;28;20261;-83
2023/09/24 06:00:13;;;;;;;2.40;0.40;;;21.80;93.30;;;;;;5032741;28;20193;-84
2023/09/24 06:02:48;;;;;;;3.60;0.45;;;21.80;93.70;;;;;;5038852;28;20193;-84
2023/09/24 06:05:19;;;;;;;2.38;0.50;;;22.20;93.20;;;;;;5042084;28;20207;-85
2023/09/24 06:07:51;;;;;;;1.48;0.30;;;22.30;92.60;;;;;;5041435;28;20266;-84
2023/09/24 06:10:23;;;;;;;0.57;0.30;;;22.30;91.70;;;;;;5042654;28;20216;-85
2023/09/24 06:12:59;;;;;;;3.55;0.52;;;22.30;92.00;;;;;;5042596;28;20266;-84
2023/09/24 06:15:31;;;;;;;1.48;0.40;;;22.50;91.00;;;;;;5041254;28;20205;-84
2023/09/24 06:18:02;;;;;;;1.13;0.30;;;23.00;90.60;;;;;;5043082;28;20197;-84
2023/09/24 06:20:33;;;;;;;1.42;0.50;;;23.30;89.90;;;;;;5037609;28;20194;-85
2023/09/24 06:23:04;;;;;;;0.55;0.40;;;23.70;88.50;;;;;;5037669;28;20231;-85
2023/09/24 06:25:37;;;;;;;1.90;0.30;;;23.90;87.80;;;;;;5045547;28;20205;-84
2023/09/24 06:28:13;;;;;;;0.80;0.35;;;24.30;84.30;;;;;;5044055;28;20561;-84
2023/09/24 06:30:44;;;;;;;1.50;0.40;;;24.60;83.50;;;;;;5036029;28;20235;-84
2023/09/24 06:33:19;;;;;;;1.40;0.30;;;24.60;84.20;;;;;;5039292;28;20207;-84
2023/09/24 06:35:50;;;;;;;1.05;0.35;;;24.70;83.20;;;;;;5035550;28;20206;-84
2023/09/24 06:38:21;;;;;;;1.30;0.38;;;24.90;81.50;;;;;;5028766;28;20239;-85
2023/09/24 06:41:00;;;;;;;0.32;0.30;;;25.00;80.70;;;;;;5041691;28;20634;-85
2023/09/24 06:43:34;;;;;;;1.38;0.28;;;25.10;78.70;;;;;;5039592;28;20232;-84
2023/09/24 06:46:06;;;;;;;0.90;0.38;;;24.70;79.00;;;;;;5039921;28;20205;-84
2023/09/24 06:48:39;;;;;;;1.23;0.30;;;24.40;80.10;;;;;;5038811;28;20193;-85
2023/09/24 06:51:11;;;;;;;1.92;0.50;;;24.50;80.40;;;;;;5032697;28;20205;-85
2023/09/24 06:53:44;;;;;;;1.55;0.32;;;24.50;80.70;;;;;;5031855;28;20614;-84
2023/09/24 06:56:15;;;;;;;1.70;0.28;;;24.20;80.30;;;;;;5026818;28;20204;-84
2023/09/24 06:58:47;;;;;;;1.00;0.30;;;24.10;80.30;;;;;;5052370;28;20283;-84
2023/09/24 07:01:18;;;;;;;0.85;0.40;;;23.80;81.40;;;;;;5048696;28;20205;-83
2023/09/24 07:03:49;;;;;;;1.10;0.30;;;23.20;84.00;;;;;;5034766;28;20189;-84
2023/09/24 07:06:21;;;;;;;1.10;0.50;;;23.00;84.70;;;;;;5032939;28;20251;-83
2023/09/24 07:08:52;;;;;;;0.98;0.43;;;22.50;86.40;;;;;;5015308;28;20281;-83
2023/09/24 07:11:27;;;;;;;2.80;0.65;;;22.10;88.70;;;;;;5019327;28;20278;-81
2023/09/24 07:14:00;;;;;;;1.48;0.38;;;21.70;90.00;;;;;;5035892;28;20208;-85
2023/09/24 07:16:31;;;;;;;0.82;0.35;;;21.50;91.10;;;;;;5034197;28;20194;-84
2023/09/24 07:19:02;;;;;;;1.30;0.30;;;21.20;92.00;;;;;;5032031;28;20566;-84
2023/09/24 07:21:34;;;;;;;0.68;0.30;;;20.90;93.00;;;;;;5020959;28;20190;-84
2023/09/24 07:24:06;;;;;;;0.80;0.40;;;20.60;94.20;;;;;;5019050;28;20240;-83
2023/09/24 07:26:37;;;;;;;1.40;0.50;;;20.30;94.70;;;;;;5033937;28;20225;-83
2023/09/24 07:29:09;;;;;;;1.35;0.50;;;20.20;95.80;;;;;;5033950;28;20762;-83
2023/09/24 07:31:40;;;;;;;1.55;0.30;;;20.00;96.90;;;;;;5036978;28;20200;-83
2023/09/24 07:34:11;;;;;;;2.08;0.50;;;19.80;97.80;;;;;;5011613;28;20566;-83
2023/09/24 07:36:41;;;;;;;1.15;0.40;;;19.80;98.10;;;;;;5011724;28;20579;-83
2023/09/24 07:39:12;;;;;;;1.38;0.77;;;19.70;99.10;;;;;;5024604;28;20649;-82
2023/09/24 07:41:43;;;;;;;2.78;0.50;;;19.70;99.30;;;;;;5030583;28;20257;-82
2023/09/24 07:44:15;;;;;;;1.33;0.40;;;19.60;99.80;;;;;;5032137;28;20244;-84
2023/09/24 07:46:47;;;;;;;1.27;0.40;;;19.50;99.90;;;;;;5030574;28;20202;-84
2023/09/24 07:49:18;;;;;;;1.77;0.50;;;19.50;99.90;;;;;;5013528;28;20248;-84
2023/09/24 07:51:49;;;;;;;0.70;0.40;;;19.40;99.90;;;;;;5011673;28;20652;-82
2023/09/24 07:54:20;;;;;;;1.15;0.47;;;19.40;99.90;;;;;;5013605;28;20224;-83
2023/09/24 07:56:51;;;;;;;1.40;0.50;;;19.40;99.90;;;;;;5032349;28;20193;-83
2023/09/24 07:59:23;;;;;;;1.23;0.30;;;19.20;99.90;;;;;;5031652;28;20656;-84
2023/09/24 08:01:54;;;;;;;0.47;0.30;;;19.20;99.90;;;;;;5032893;28;20209;-83
2023/09/24 08:04:25;;;;;;;2.30;0.40;;;19.10;99.90;;;;;;5031893;28;20201;-84
2023/09/24 08:06:56;;;;;;;0.70;0.40;;;19.10;99.90;;;;;;5020771;28;20224;-83
2023/09/24 08:09:30;;;;;;;1.85;0.40;;;19.10;99.90;;;;;;5013067;28;20226;-85
2023/09/24 08:12:01;;;;;;;1.58;0.50;;;19.10;99.90;;;;;;5028189;28;20229;-85
2023/09/24 08:14:33;;;;;;;1.70;0.65;;;19.00;99.90;;;;;;5026572;28;20198;-84
2023/09/24 08:17:04;;;;;;;1.40;0.60;;;19.00;99.90;;;;;;5032751;28;20197;-84
2023/09/24 08:19:35;;;;;;;1.20;0.60;;;19.00;99.90;;;;;;5032115;28;20201;-85
2023/09/24 08:22:08;;;;;;;2.67;0.73;;;18.90;99.90;;;;;;5028338;28;20285;-85
2023/09/24 08:24:39;;;;;;;2.38;0.70;;;18.90;99.90;;;;;;5013653;28;20260;-84
2023/09/24 08:27:10;;;;;;;2.00;0.52;;;18.90;99.90;;;;;;5018169;28;20206;-83
2023/09/24 08:29:42;;;;;;;2.65;0.60;;;18.80;99.90;;;;;;5028437;28;20228;-85
2023/09/24 08:32:14;;;;;;;0.77;0.47;;;18.80;99.90;;;;;;5039365;28;20675;-85
2023/09/24 08:34:45;;;;;;;1.25;0.52;;;18.80;99.90;;;;;;5035379;28;20200;-85
2023/09/24 08:37:15;;;;;;;1.05;0.50;;;18.70;99.90;;;;;;5039875;28;20269;-82
2023/09/24 08:39:47;;;;;;;1.08;0.40;;;18.70;99.90;;;;;;5036631;28;20280;-82
2023/09/24 08:42:22;;;;;;;1.73;0.63;;;18.70;99.90;;;;;;5022232;28;20731;-85
2023/09/24 08:45:05;;;;;;;0.90;0.45;;;18.70;99.90;;;;;;5015683;28;20229;-83
2023/09/24 08:47:38;;;;;;;0.77;0.40;;;18.60;99.90;;;;;;5017355;28;20194;-84
2023/09/24 08:50:10;;;;;;;2.47;0.50;;;18.60;99.90;;;;;;5019113;28;20253;-84
2023/09/24 08:52:42;;;;;;;5.05;2.20;;;18.60;99.90;;;;;;5026216;28;20197;-84
2023/09/24 08:55:16;;;;;;;1.67;0.98;;;18.50;99.90;;;;;;5033736;28;20605;-84
2023/09/24 08:57:47;;;;;;;0.52;0.45;;;18.50;99.90;;;;;;5036327;28;20201;-85
2023/09/24 09:00:20;;;;;;;0.95;0.40;;;18.60;99.90;;;;;;5029419;28;20288;-83
2023/09/24 09:02:51;;;;;;;1.35;0.70;;;18.60;99.90;;;;;;5035924;28;20208;-83
2023/09/24 09:05:26;;;;;;;3.25;0.93;;;18.50;99.90;;;;;;5047894;28;20200;-84
2023/09/24 09:07:58;;;;;;;1.83;0.70;;;18.50;99.90;;;;;;5036317;28;20267;-84
2023/09/24 09:10:39;;;;;;;1.70;0.50;;;18.50;99.90;;;;;;5033381;28;20225;-84
2023/09/24 09:13:11;;;;;;;1.05;0.60;;;18.40;99.90;;;;;;5034564;28;20232;-84
2023/09/24 09:15:44;;;;;;;1.38;0.73;;;18.40;99.90;;;;;;5034389;28;20662;-84
2023/09/24 09:18:25;;;;;;;2.63;1.08;;;18.40;99.90;;;;;;5034359;28;20204;-84
2023/09/24 09:20:59;;;;;;;2.83;0.98;;;18.40;99.90;;;;;;5028698;28;20676;-84
2023/09/24 09:23:37;;;;;;;1.75;0.70;;;18.40;99.90;;;;;;5031522;28;20555;-84
2023/09/24 09:26:09;;;;;;;2.50;0.73;;;18.40;99.90;;;;;;5015247;28;20190;-84
2023/09/24 09:28:39;;;;;;;2.33;0.60;;;18.40;99.90;;;;;;5028854;28;20224;-85
2023/09/24 09:31:13;;;;;;;1.75;0.43;;;18.40;99.90;;;;;;5041213;28;20560;-84
2023/09/24 09:33:45;;;;;;;1.45;0.40;;;18.40;99.90;;;;;;5020950;28;20194;-84
2023/09/24 09:36:27;;;;;;;2.20;0.70;;;18.40;99.90;;;;;;5029933;28;20288;-85
2023/09/24 09:38:58;;;;;;;1.88;0.60;;;18.30;99.90;;;;;;5030313;28;20194;-84
2023/09/24 09:41:29;;;;;;;1.40;0.80;;;18.40;99.90;;;;;;5028912;28;20243;-84
2023/09/24 09:44:05;;;;;;;2.00;0.70;;;18.30;99.90;;;;;;5044794;28;20186;-85
2023/09/24 09:46:42;;;;;;;1.63;0.88;;;18.40;99.90;;;;;;5038128;28;20644;-86
2023/09/24 09:49:15;;;;;;;1.02;0.63;;;18.30;99.90;;;;;;5036559;28;20201;-85
2023/09/24 09:51:51;;;;;;;1.85;0.70;;;18.30;99.90;;;;;;5037670;28;20225;-87
2023/09/24 09:54:23;;;;;;;2.67;0.82;;;18.30;99.90;;;;;;5038917;28;20264;-85
2023/09/24 09:56:58;;;;;;;1.15;0.38;;;18.30;99.90;;;;;;5038720;28;20664;-85
2023/09/24 09:59:30;;;;;;;1.60;0.60;;;18.30;99.90;;;;;;5030948;28;20273;-84
2023/09/24 10:02:03;;;;;;;3.25;0.50;;;18.20;99.90;;;;;;5038147;28;20200;-85
2023/09/24 10:04:35;;;;;;;1.52;0.50;;;18.20;99.90;;;;;;5039008;28;20201;-85
2023/09/24 10:07:06;;;;;;;2.50;0.55;;;18.20;99.90;;;;;;5036953;28;20257;-84
2023/09/24 10:09:37;;;;;;;1.20;0.38;;;18.20;99.90;;;;;;5031011;28;20212;-84
2023/09/24 10:12:09;;;;;;;2.03;0.60;;;18.20;99.90;;;;;;5030979;28;20228;-84
2023/09/24 10:14:42;;;;;;;2.40;0.40;;;18.10;99.90;;;;;;5034628;28;20559;-85
2023/09/24 10:17:28;;;;;;;0.50;0.43;;;18.20;99.90;;;;;;5023749;28;20189;-85
2023/09/24 10:20:06;;;;;;;2.35;0.60;;;18.10;99.90;;;;;;5042764;28;20213;-85
2023/09/24 10:22:40;;;;;;;3.30;0.90;;;18.20;99.90;;;;;;5045628;28;20201;-84
2023/09/24 10:25:39;;;;;;;3.08;1.33;;;18.10;99.90;;;;;;5047822;28;20202;-82
2023/09/24 10:28:12;;;;;;;1.63;0.90;;;18.10;99.90;;;;;;5023891;28;20225;-83
2023/09/24 10:31:10;;;;;;;3.03;1.70;;;18.10;99.90;;;;;;5030095;28;20211;-83
2023/09/24 10:34:02;;;;;;;3.92;1.10;;;18.10;99.90;;;;;;5031881;28;20202;-85
2023/09/24 10:36:33;;;;;;;1.38;0.70;;;18.10;99.90;;;;;;5037375;28;20241;-85
2023/09/24 10:39:11;;;;;;;2.05;0.60;;;18.10;99.90;;;;;;5060732;28;20200;-83
2023/09/24 10:42:16;;;;;;;1.83;0.70;;;18.10;99.90;;;;;;5046542;28;20197;-84
2023/09/24 10:44:51;;;;;;;1.35;0.70;;;18.10;99.90;;;;;;5032253;28;20281;-84
2023/09/24 10:47:34;;;;;;;1.27;0.50;;;18.10;99.90;;;;;;5035076;28;20196;-82
2023/09/24 10:50:23;;;;;;;0.75;0.60;;;18.10;99.90;;;;;;5029039;28;20197;-83
2023/09/24 10:52:54;;;;;;;1.02;0.50;;;18.10;99.90;;;;;;5033317;28;20232;-84
2023/09/24 10:55:38;;;;;;;0.95;0.40;;;18.10;99.90;;;;;;5028276;28;20583;-82
2023/09/24 10:58:16;;;;;;;1.60;0.75;;;18.00;99.90;;;;;;5047207;28;20672;-83
2023/09/24 11:00:52;;;;;;;1.73;0.88;;;17.90;99.90;;;;;;5032418;28;20197;-85
2023/09/24 11:03:23;;;;;;;3.22;0.73;;;18.00;99.90;;;;;;5038860;28;20560;-83
2023/09/24 11:06:01;;;;;;;5.15;1.05;;;18.00;99.90;;;;;;5039072;28;20178;-83
2023/09/24 11:08:32;;;;;;;1.95;0.82;;;18.00;99.90;;;;;;5039118;28;20197;-85
2023/09/24 11:11:03;;;;;;;2.20;0.52;;;17.90;99.90;;;;;;5041109;28;20232;-82
2023/09/24 11:13:34;;;;;;;1.65;0.60;;;17.90;99.90;;;;;;5039932;28;20316;-81
2023/09/24 11:16:05;;;;;;;0.80;0.43;;;17.90;99.90;;;;;;5037363;28;20269;-84
2023/09/24 11:18:38;;;;;;;1.83;0.40;;;17.80;99.90;;;;;;5038097;28;20182;-83
2023/09/24 11:21:10;;;;;;;0.60;0.43;;;17.80;99.90;;;;;;5037873;28;20216;-85
2023/09/24 11:23:43;;;;;;;1.90;0.52;;;17.80;99.90;;;;;;5039020;28;20575;-84
2023/09/24 11:26:14;;;;;;;0.77;0.60;;;17.80;99.90;;;;;;5035333;28;20580;-82
2023/09/24 11:28:50;;;;;;;1.50;0.50;;;17.80;99.90;;;;;;5030681;28;20259;-84
2023/09/24 11:31:27;;;;;;;1.70;0.40;;;17.80;99.90;;;;;;5036516;28;20221;-83
2023/09/24 11:33:58;;;;;;;1.13;0.50;;;17.80;99.90;;;;;;5027924;28;20240;-82
2023/09/24 11:36:48;;;;;;;2.65;0.65;;;17.70;99.90;;;;;;5034834;28;20189;-83
2023/09/24 11:39:20;;;;;;;2.20;0.70;;;17.70;99.90;;;;;;5043071;28;20205;-84
2023/09/24 11:41:51;;;;;;;1.30;0.50;;;17.80;99.90;;;;;;5041807;28;20190;-85
2023/09/24 11:44:23;;;;;;;3.67;0.60;;;17.70;99.90;;;;;;5038963;28;20201;-82
2023/09/24 11:46:53;;;;;;;0.40;0.40;;;17.70;99.90;;;;;;5030257;28;20204;-83
2023/09/24 11:49:24;;;;;;;2.15;0.80;;;17.60;99.90;;;;;;5040218;28;20200;-82
2023/09/24 11:52:09;;;;;;;1.55;0.50;;;17.60;99.90;;;;;;5038074;28;20232;-81
2023/09/24 11:54:41;;;;;;;1.10;0.57;;;17.60;99.90;;;;;;5036527;28;20299;-80
2023/09/24 11:57:12;;;;;;;2.17;0.50;;;17.60;99.90;;;;;;5036755;28;20205;-82
2023/09/24 11:59:43;;;;;;;1.75;0.63;;;17.60;99.90;;;;;;5042166;28;20197;-82
2023/09/24 12:02:14;;;;;;;0.85;0.45;;;17.50;99.90;;;;;;5041503;28;20287;-79
2023/09/24 12:04:45;;;;;;;0.90;0.45;;;17.50;99.90;;;;;;5057010;28;20702;-83
2023/09/24 12:07:18;;;;;;;1.48;0.50;;;17.50;99.90;;;;;;5018998;28;20194;-84
2023/09/24 12:09:49;;;;;;;2.50;0.52;;;17.50;99.90;;;;;;5036923;28;20196;-83
2023/09/24 12:12:20;;;;;;;2.08;0.68;;;17.50;99.90;;;;;;5035297;28;20240;-83
2023/09/24 12:14:51;;;;;;;0.55;0.45;;;17.40;99.90;;;;;;5034291;28;20685;-84
2023/09/24 12:17:22;;;;;;;0.70;0.45;;;17.40;99.90;;;;;;5018102;28;20285;-82
2023/09/24 12:19:53;;;;;;;1.05;0.60;;;17.40;99.90;;;;;;5026684;28;20201;-83
2023/09/24 12:22:26;;;;;;;0.85;0.55;;;17.40;99.90;;;;;;5032912;28;20275;-82
2023/09/24 12:24:57;;;;;;;1.95;0.70;;;17.30;99.90;;;;;;5033653;28;20232;-84
2023/09/24 12:27:30;;;;;;;0.98;0.65;;;17.30;99.90;;;;;;5020538;28;20592;-84
2023/09/24 12:30:01;;;;;;;1.70;0.50;;;17.30;99.90;;;;;;5035406;28;20193;-84
2023/09/24 12:32:32;;;;;;;1.50;0.70;;;17.30;99.90;;;;;;5035847;28;20684;-84
2023/09/24 12:35:05;;;;;;;2.17;0.80;;;17.30;99.90;;;;;;5033965;28;20194;-83
2023/09/24 12:37:38;;;;;;;1.45;0.73;;;17.30;99.90;;;;;;5046722;28;20266;-81
2023/09/24 12:40:10;;;;;;;1.95;0.68;;;17.30;99.90;;;;;;5054145;28;20201;-83
2023/09/24 12:42:43;;;;;;;2.08;0.80;;;17.20;99.90;;;;;;5029250;28;20201;-82
2023/09/24 12:45:14;;;;;;;2.58;0.82;;;17.20;99.90;;;;;;5035091;28;20197;-81
2023/09/24 12:47:45;;;;;;;1.75;0.75;;;17.20;99.90;;;;;;5039793;28;20193;-84
2023/09/24 12:50:16;;;;;;;2.97;0.70;;;17.20;99.90;;;;;;5038534;28;20204;-84
2023/09/24 12:52:50;;;;;;;2.03;0.85;;;17.10;99.90;;;;;;5029102;28;20264;-81
2023/09/24 12:55:21;;;;;;;0.90;0.63;;;17.10;99.90;;;;;;5017015;28;20731;-82
2023/09/24 12:57:53;;;;;;;1.80;0.80;;;17.10;99.90;;;;;;5015887;28;20194;-85
2023/09/24 13:00:23;;;;;;;1.40;0.75;;;17.10;99.90;;;;;;5030938;28;20592;-84
2023/09/24 13:02:54;;;;;;;1.83;0.80;;;17.00;99.90;;;;;;5016937;28;20212;-83
2023/09/24 13:05:25;;;;;;;0.90;0.70;;;17.00;99.90;;;;;;5022032;28;20193;-82
2023/09/24 13:07:57;;;;;;;1.52;0.73;;;16.90;99.90;;;;;;5037218;28;20197;-83
2023/09/24 13:10:29;;;;;;;0.93;0.60;;;16.90;99.90;;;;;;5025116;28;20197;-83
2023/09/24 13:12:59;;;;;;;1.73;0.70;;;16.90;99.90;;;;;;5035899;28;20241;-83
2023/09/24 13:15:30;;;;;;;1.00;0.70;;;16.90;99.90;;;;;;5037693;28;20236;-83